Terminal Aerodrome Forecast
Issued by NWS Cleveland, OH

Home | Current Version | Previous Version | Text Only | Print | Product List | Glossary On
Versions: 1 2 3 4 5 6 7 8 9 10 11 12
409
FTUS41 KCLE 191726
TAFYNG
TAF
KYNG 191726Z 1918/2018 22012KT P6SM FEW250
     FM192300 24006KT P6SM FEW250
     FM201400 19004KT P6SM SKC=

USA.gov is the U.S. government's official web portal to all federal, state and local government web resources and services.